Time;durP1;ratioP1;P1;durP2;ratioP2;P2;SDS_P1;SDS_P2;PMS_P1;PMS_P2;Temp;Humidity;BMP_temperature;BMP_pressure;BME280_temperature;BME280_humidity;BME280_pressure;Samples;Min_cycle;Max_cycle;Signal;HPM_P1;HPM_P2
2023/12/17 00:00:51;;;;;;;11.02;4.95;;;;;;;8.72;65.86;101964.59;5004031;28;96826;-79
2023/12/17 00:03:17;;;;;;;10.00;4.38;;;;;;;8.71;65.97;101955.00;5006081;28;101285;-78
2023/12/17 00:05:42;;;;;;;12.77;4.60;;;;;;;8.63;66.38;101949.75;5017578;28;100839;-78
2023/12/17 00:08:08;;;;;;;11.65;4.68;;;;;;;8.77;65.56;101958.47;5003836;28;96838;-78
2023/12/17 00:10:33;;;;;;;9.30;4.82;;;;;;;8.82;65.39;101954.13;5025450;28;96866;-78
2023/12/17 00:12:59;;;;;;;12.32;5.07;;;;;;;8.98;65.62;101978.53;5022673;28;97923;-80
2023/12/17 00:15:24;;;;;;;10.07;4.40;;;;;;;8.98;65.37;101975.91;5019965;28;98216;-78
2023/12/17 00:17:50;;;;;;;10.15;4.40;;;;;;;8.89;66.48;101941.00;5018012;28;97150;-78
2023/12/17 00:20:15;;;;;;;7.47;3.50;;;;;;;8.73;66.68;101925.31;5021794;28;97283;-78
2023/12/17 00:22:41;;;;;;;10.10;3.53;;;;;;;8.70;66.79;101906.13;5002501;28;97608;-78
2023/12/17 00:25:07;;;;;;;9.38;3.70;;;;;;;8.86;66.97;101938.41;5020142;28;97613;-78
2023/12/17 00:27:32;;;;;;;10.50;3.53;;;;;;;8.94;66.74;101934.03;5004954;28;96864;-78
2023/12/17 00:29:57;;;;;;;6.97;3.35;;;;;;;9.01;66.82;101943.59;5003826;28;97131;-78
2023/12/17 00:32:23;;;;;;;6.82;3.35;;;;;;;8.97;66.82;101941.88;5024289;28;97434;-78
2023/12/17 00:34:48;;;;;;;8.15;3.38;;;;;;;9.03;66.64;101949.72;5023028;28;101114;-78
2023/12/17 00:37:14;;;;;;;8.40;3.70;;;;;;;8.99;67.19;101961.97;5023285;28;96713;-78
2023/12/17 00:39:40;;;;;;;6.80;3.53;;;;;;;9.11;66.60;101958.44;5020634;28;97209;-80
2023/12/17 00:42:05;;;;;;;10.30;3.60;;;;;;;9.15;66.64;101967.16;5019257;28;97550;-78
2023/12/17 00:44:31;;;;;;;6.15;2.90;;;;;;;9.17;66.87;101974.16;5020406;28;98084;-78
2023/12/17 00:46:56;;;;;;;6.85;3.22;;;;;;;9.02;66.22;101941.00;5022595;27;96817;-78
2023/12/17 00:49:22;;;;;;;7.53;3.58;;;;;;;9.09;67.00;101970.66;5036335;27;97154;-79
2023/12/17 00:51:47;;;;;;;13.90;3.30;;;;;;;9.02;66.98;101955.84;5035162;27;98351;-78
2023/12/17 00:54:13;;;;;;;7.93;3.60;;;;;;;9.00;66.74;101960.22;5036222;27;97934;-78
2023/12/17 00:56:39;;;;;;;11.60;3.70;;;;;;;9.01;67.06;101956.69;5002540;27;97120;-78
2023/12/17 00:59:04;;;;;;;9.95;3.75;;;;;;;9.04;67.21;101960.19;5015095;27;97953;-77
2023/12/17 01:01:30;;;;;;;7.68;3.53;;;;;;;9.11;66.66;101957.59;5032603;27;97452;-79
2023/12/17 01:03:55;;;;;;;10.55;3.60;;;;;;;9.05;66.82;101948.84;5002186;27;101551;-80
2023/12/17 01:06:21;;;;;;;9.55;3.38;;;;;;;8.99;67.28;101951.47;5031562;27;96785;-78
2023/12/17 01:08:46;;;;;;;9.15;3.65;;;;;;;8.95;66.88;101936.63;5018069;27;96776;-78
2023/12/17 01:11:12;;;;;;;6.28;3.30;;;;;;;8.83;67.41;101932.28;5054017;27;97590;-77
2023/12/17 01:13:37;;;;;;;9.45;3.80;;;;;;;8.98;67.33;101928.75;5018137;27;101164;-78
2023/12/17 01:16:04;;;;;;;8.30;4.00;;;;;;;9.02;67.59;101927.03;5034757;27;97048;-77
2023/12/17 01:18:30;;;;;;;8.55;3.20;;;;;;;8.91;67.67;101926.19;5034836;27;97287;-78
2023/12/17 01:20:55;;;;;;;9.07;3.95;;;;;;;9.06;67.28;101947.97;5035073;27;97985;-78
2023/12/17 01:23:21;;;;;;;10.18;3.92;;;;;;;9.04;67.11;101954.06;5035373;27;97477;-77
2023/12/17 01:25:46;;;;;;;9.57;4.72;;;;;;;8.99;67.17;101925.28;5018029;27;96764;-78
2023/12/17 01:28:12;;;;;;;9.80;3.63;;;;;;;9.20;66.44;101940.09;5035027;27;96861;-78
2023/12/17 01:30:37;;;;;;;8.32;3.80;;;;;;;9.16;66.97;101937.47;5035148;27;99674;-78
2023/12/17 01:33:03;;;;;;;10.77;4.15;;;;;;;9.08;66.63;101932.25;5035290;27;97368;-78
2023/12/17 01:35:30;;;;;;;10.13;3.72;;;;;;;9.14;66.82;101936.63;5014793;27;97128;-79
2023/12/17 01:37:56;;;;;;;6.65;3.58;;;;;;;8.97;66.95;101924.41;5015981;27;97014;-79
2023/12/17 01:40:21;;;;;;;12.73;3.88;;;;;;;8.95;67.19;101923.53;5031952;27;101443;-78
2023/12/17 01:42:47;;;;;;;12.63;4.05;;;;;;;8.92;67.31;101920.91;5017975;27;97910;-78
2023/12/17 01:45:12;;;;;;;8.25;3.80;;;;;;;8.88;67.45;101918.34;4996641;27;96776;-78
2023/12/17 01:47:38;;;;;;;9.13;4.55;;;;;;;8.84;67.48;101912.19;5049382;27;97302;-78
2023/12/17 01:50:04;;;;;;;10.70;3.60;;;;;;;8.86;67.51;101928.78;5015197;27;97475;-78
2023/12/17 01:52:30;;;;;;;9.35;4.47;;;;;;;8.87;67.21;101922.66;5017867;27;101438;-78
2023/12/17 01:54:55;;;;;;;7.20;3.42;;;;;;;8.86;67.25;101935.78;5018140;27;97129;-82
2023/12/17 01:57:21;;;;;;;9.32;3.70;;;;;;;8.81;67.93;101938.38;5050350;27;96799;-78
2023/12/17 01:59:46;;;;;;;6.18;3.50;;;;;;;8.83;67.79;101937.53;5043885;27;97501;-78
2023/12/17 02:02:12;;;;;;;9.27;4.22;;;;;;;8.90;67.51;101922.69;5050276;27;98001;-78
2023/12/17 02:04:38;;;;;;;7.65;4.25;;;;;;;8.76;67.09;101901.75;5014459;27;97164;-78
2023/12/17 02:07:03;;;;;;;10.50;3.53;;;;;;;8.68;67.81;101900.88;5001485;27;97223;-78
2023/12/17 02:09:29;;;;;;;6.05;2.95;;;;;;;8.73;68.11;101916.59;5051979;27;97857;-78
2023/12/17 02:11:54;;;;;;;10.25;4.00;;;;;;;8.68;67.81;101918.34;5006438;27;101485;-78
2023/12/17 02:14:20;;;;;;;9.77;3.95;;;;;;;8.77;68.00;101931.44;5052814;27;96731;-78
2023/12/17 02:16:45;;;;;;;6.03;3.33;;;;;;;8.77;67.62;101923.56;5053006;27;97225;-79
2023/12/17 02:19:11;;;;;;;9.98;4.03;;;;;;;8.83;67.29;101924.44;5032261;27;97932;-78
2023/12/17 02:21:37;;;;;;;6.55;3.67;;;;;;;8.93;67.21;101943.63;5017171;27;101065;-79
2023/12/17 02:24:03;;;;;;;6.10;3.20;;;;;;;8.95;67.03;101948.84;5003618;27;97866;-78
2023/12/17 02:26:28;;;;;;;6.72;3.80;;;;;;;8.88;67.32;101955.84;5018244;27;96797;-78
2023/12/17 02:28:54;;;;;;;7.47;3.50;;;;;;;8.92;67.22;101949.72;5033503;27;101758;-78
2023/12/17 02:31:19;;;;;;;6.72;3.20;;;;;;;8.83;67.00;101947.13;5053064;27;97303;-78
2023/12/17 02:33:46;;;;;;;4.97;3.08;;;;;;;8.92;67.26;101954.09;5034441;27;96953;-78
2023/12/17 02:36:12;;;;;;;7.43;3.40;;;;;;;8.96;66.89;101948.88;4999778;27;96900;-79
2023/12/17 02:38:37;;;;;;;7.35;3.42;;;;;;;8.91;67.19;101949.75;5033300;27;100056;-78
2023/12/17 02:41:03;;;;;;;7.97;3.30;;;;;;;8.90;66.68;101942.75;5017167;27;97454;-78
2023/12/17 02:43:29;;;;;;;7.95;3.55;;;;;;;8.83;66.81;101936.66;5018269;27;96883;-79
2023/12/17 02:45:54;;;;;;;8.15;4.05;;;;;;;8.82;66.85;101934.91;5024092;27;97147;-78
2023/12/17 02:48:20;;;;;;;7.22;3.45;;;;;;;9.01;66.50;101941.84;5034372;27;98201;-78
2023/12/17 02:50:45;;;;;;;9.43;3.70;;;;;;;8.88;66.71;101934.03;5052068;27;97458;-78
2023/12/17 02:53:11;;;;;;;7.55;3.85;;;;;;;8.87;66.92;101948.84;5018030;27;97457;-79
2023/12/17 02:55:36;;;;;;;10.10;4.47;;;;;;;8.74;67.08;101936.66;5015166;27;96964;-78
2023/12/17 02:58:05;;;;;;;6.40;3.90;;;;;;;8.81;66.37;101925.31;5051541;27;97316;-78
2023/12/17 03:00:31;;;;;;;7.28;4.15;;;;;;;8.90;66.87;101934.88;5000281;27;101410;-80
2023/12/17 03:02:57;;;;;;;8.57;4.38;;;;;;;8.98;66.13;101930.53;5000161;27;96851;-78
2023/12/17 03:05:22;;;;;;;8.88;4.05;;;;;;;8.99;66.32;101930.53;5013800;27;96893;-79
2023/12/17 03:07:48;;;;;;;5.53;3.03;;;;;;;8.89;66.11;101922.69;5034301;27;101629;-77
2023/12/17 03:10:13;;;;;;;10.07;4.57;;;;;;;8.93;65.91;101941.03;5016670;27;100756;-78
2023/12/17 03:12:39;;;;;;;12.13;4.93;;;;;;;8.87;66.30;101950.59;5035157;27;96713;-78
2023/12/17 03:15:05;;;;;;;9.88;4.43;;;;;;;9.01;65.78;101941.84;5033966;27;96872;-78
2023/12/17 03:17:31;;;;;;;11.40;4.75;;;;;;;8.97;65.76;101932.28;5017208;27;101160;-77
2023/12/17 03:19:57;;;;;;;11.93;4.82;;;;;;;9.02;66.01;101937.50;5032040;27;97521;-78
2023/12/17 03:22:22;;;;;;;11.57;4.90;;;;;;;8.98;65.39;101925.28;5030660;27;96805;-78
2023/12/17 03:24:47;;;;;;;7.45;4.15;;;;;;;8.98;65.88;101923.53;4999223;27;96945;-78
2023/12/17 03:27:13;;;;;;;6.65;4.47;;;;;;;8.85;65.41;101916.59;5014388;27;97932;-78
2023/12/17 03:29:38;;;;;;;8.50;4.47;;;;;;;8.61;65.48;101899.16;5033269;27;97412;-78
2023/12/17 03:32:04;;;;;;;7.78;4.35;;;;;;;8.68;65.87;101921.84;5014291;27;96720;-78
2023/12/17 03:34:29;;;;;;;8.38;4.68;;;;;;;8.73;65.44;101929.69;5033528;27;96878;-78
2023/12/17 03:36:55;;;;;;;10.00;5.18;;;;;;;8.80;65.01;101934.91;5033432;27;97526;-79
2023/12/17 03:39:20;;;;;;;8.15;5.00;;;;;;;8.59;65.97;101917.47;5031940;27;97882;-77
2023/12/17 03:41:46;;;;;;;8.93;4.70;;;;;;;8.71;65.48;101924.44;5032907;27;97207;-79
2023/12/17 03:44:12;;;;;;;9.82;5.00;;;;;;;8.58;65.61;101917.47;5033788;27;96785;-78
2023/12/17 03:46:37;;;;;;;10.25;5.30;;;;;;;8.54;65.74;101915.72;5016271;27;101134;-78
2023/12/17 03:49:03;;;;;;;8.88;5.05;;;;;;;8.57;65.71;101927.06;5032416;27;96845;-78
2023/12/17 03:51:28;;;;;;;12.18;5.80;;;;;;;8.52;65.60;101912.22;5015476;27;96716;-77
2023/12/17 03:53:54;;;;;;;14.93;5.68;;;;;;;8.72;65.37;101928.81;4999319;27;96880;-79
2023/12/17 03:56:22;;;;;;;9.00;5.22;;;;;;;8.69;65.22;101926.19;5014639;27;101323;-78
2023/12/17 03:58:48;;;;;;;9.57;4.70;;;;;;;8.55;65.17;101886.06;5033361;27;97358;-78
2023/12/17 04:01:13;;;;;;;7.90;4.63;;;;;;;8.49;65.08;101902.63;5033143;27;98478;-78
2023/12/17 04:03:39;;;;;;;7.70;4.65;;;;;;;8.42;65.58;101920.97;5033629;27;96863;-78
2023/12/17 04:06:05;;;;;;;8.15;4.75;;;;;;;8.42;65.98;101907.88;5013093;27;101389;-78
2023/12/17 04:08:31;;;;;;;8.27;4.55;;;;;;;8.55;65.14;101934.06;5032770;27;97484;-78
2023/12/17 04:10:56;;;;;;;8.07;4.85;;;;;;;8.57;65.75;101945.38;5016471;27;96933;-80
2023/12/17 04:13:22;;;;;;;11.70;5.20;;;;;;;8.65;65.29;101942.78;5014356;27;96797;-79
2023/12/17 04:15:47;;;;;;;7.53;4.80;;;;;;;8.55;65.16;101923.59;5027568;27;101470;-78
2023/12/17 04:18:13;;;;;;;11.68;5.35;;;;;;;8.56;64.75;101920.09;5033332;27;97361;-78
2023/12/17 04:20:38;;;;;;;14.43;5.35;;;;;;;8.62;65.00;101940.16;5032032;27;96761;-78
2023/12/17 04:23:04;;;;;;;8.40;4.90;;;;;;;8.53;65.27;101943.66;5033581;27;96869;-78
2023/12/17 04:25:29;;;;;;;8.82;4.80;;;;;;;8.62;65.17;101953.25;5015139;27;101251;-78
2023/12/17 04:27:55;;;;;;;10.57;5.18;;;;;;;8.34;65.16;101921.78;5015947;27;100798;-78
2023/12/17 04:30:20;;;;;;;10.02;5.18;;;;;;;8.47;65.02;101948.91;5015240;27;97183;-81
2023/12/17 04:32:46;;;;;;;12.85;6.05;;;;;;;8.36;65.58;101925.28;5016491;27;96979;-78
2023/12/17 04:35:11;;;;;;;9.30;5.35;;;;;;;8.55;65.16;101938.41;5052437;27;98261;-78
2023/12/17 04:37:37;;;;;;;11.05;5.88;;;;;;;8.48;65.60;101928.81;5033310;27;100851;-78
2023/12/17 04:40:03;;;;;;;12.45;5.97;;;;;;;8.66;65.20;101930.56;5018478;27;96852;-78
2023/12/17 04:42:29;;;;;;;13.57;6.13;;;;;;;8.56;64.83;101930.56;5036367;27;97158;-78
2023/12/17 04:44:54;;;;;;;10.52;5.85;;;;;;;8.59;65.23;101917.47;5035944;27;97434;-78
2023/12/17 04:47:20;;;;;;;11.55;6.00;;;;;;;8.46;65.23;101922.72;5018604;27;97322;-78
2023/12/17 04:49:46;;;;;;;12.00;5.95;;;;;;;8.39;65.50;101933.19;5034617;27;96961;-79
2023/12/17 04:52:11;;;;;;;12.73;6.25;;;;;;;8.46;65.07;101925.31;5036583;27;97612;-80
2023/12/17 04:54:37;;;;;;;11.95;5.75;;;;;;;8.39;65.66;101932.31;5016927;27;97323;-78
2023/12/17 04:57:03;;;;;;;14.07;6.00;;;;;;;8.31;65.38;101916.56;5012293;27;101144;-78
2023/12/17 04:59:28;;;;;;;12.65;6.25;;;;;;;8.47;65.59;101934.94;5035809;27;96867;-78
2023/12/17 05:01:54;;;;;;;10.40;6.55;;;;;;;8.36;65.47;101929.66;5035036;27;96902;-78
2023/12/17 05:04:19;;;;;;;12.20;6.93;;;;;;;8.46;65.14;101943.63;5001078;27;101274;-78
2023/12/17 05:06:45;;;;;;;11.88;5.65;;;;;;;8.46;65.16;101936.66;5017547;27;97293;-78
2023/12/17 05:09:10;;;;;;;9.77;6.05;;;;;;;8.28;65.39;101905.22;5036065;27;97215;-78
2023/12/17 05:11:36;;;;;;;7.20;4.90;;;;;;;8.51;65.33;101932.31;5019473;27;96941;-78
2023/12/17 05:14:01;;;;;;;8.95;5.68;;;;;;;8.37;65.47;101919.16;5035279;27;97465;-78
2023/12/17 05:16:27;;;;;;;9.15;4.75;;;;;;;8.51;65.31;101945.38;5053687;27;98250;-79
2023/12/17 05:18:52;;;;;;;13.20;5.60;;;;;;;8.44;65.73;101942.78;5035335;27;96738;-78
2023/12/17 05:21:18;;;;;;;11.20;4.85;;;;;;;8.28;65.45;101929.63;5053800;27;97014;-78
2023/12/17 05:23:43;;;;;;;11.13;5.40;;;;;;;8.32;66.06;101956.66;5052947;27;97442;-78
2023/12/17 05:26:09;;;;;;;13.77;5.10;;;;;;;8.35;65.33;101941.00;5029801;27;101346;-78
2023/12/17 05:28:35;;;;;;;8.68;5.00;;;;;;;8.35;65.56;101931.41;5034656;27;96814;-78
2023/12/17 05:31:00;;;;;;;9.85;5.25;;;;;;;8.45;65.17;101960.22;5018104;27;97130;-78
2023/12/17 05:33:26;;;;;;;8.32;4.65;;;;;;;8.33;65.77;101947.97;5033964;27;98856;-80
2023/12/17 05:35:51;;;;;;;9.32;5.20;;;;;;;8.41;65.76;101963.69;5034612;27;97882;-80
2023/12/17 05:38:18;;;;;;;9.43;5.00;;;;;;;8.37;65.94;101968.03;5018635;27;97437;-79
2023/12/17 05:40:43;;;;;;;8.68;4.60;;;;;;;8.45;65.38;101973.31;5053005;27;97175;-78
2023/12/17 05:43:09;;;;;;;11.38;5.88;;;;;;;8.39;65.41;101955.84;5018530;27;97475;-78
2023/12/17 05:45:34;;;;;;;8.10;4.60;;;;;;;8.53;65.27;101974.19;5034444;27;97460;-78
2023/12/17 05:48:00;;;;;;;7.85;5.18;;;;;;;8.54;65.09;101978.56;5035138;27;97332;-78
2023/12/17 05:50:25;;;;;;;10.40;5.38;;;;;;;8.43;65.35;101952.34;5034884;27;97300;-79
2023/12/17 05:52:51;;;;;;;13.05;5.82;;;;;;;8.48;65.74;101961.09;5035037;27;98285;-78
2023/12/17 05:55:16;;;;;;;9.88;5.57;;;;;;;8.53;65.13;101969.84;5052908;27;97450;-78
2023/12/17 05:57:43;;;;;;;8.95;5.15;;;;;;;8.32;66.19;101949.72;5035678;27;97303;-78
2023/12/17 06:00:10;;;;;;;12.07;4.97;;;;;;;8.40;65.59;101949.75;5018428;27;97207;-78
2023/12/17 06:02:36;;;;;;;9.02;4.38;;;;;;;8.38;65.52;101959.31;5018348;27;101554;-78
2023/12/17 06:05:02;;;;;;;8.63;4.75;;;;;;;8.37;65.54;101939.25;5028625;27;98063;-78
2023/12/17 06:07:27;;;;;;;7.25;4.10;;;;;;;8.22;65.88;101936.63;5033065;27;96915;-80
2023/12/17 06:09:54;;;;;;;11.82;5.20;;;;;;;8.44;66.11;101967.22;5054178;27;96883;-78
2023/12/17 06:12:19;;;;;;;8.60;4.57;;;;;;;8.31;66.36;101940.09;5018261;27;97581;-78
2023/12/17 06:14:45;;;;;;;9.35;5.65;;;;;;;8.34;66.51;101947.97;5023175;28;97480;-78
2023/12/17 06:17:10;;;;;;;12.60;5.13;;;;;;;8.31;66.40;101955.81;5033540;27;97278;-78
2023/12/17 06:19:36;;;;;;;13.93;7.13;;;;;;;8.28;66.32;101957.56;5014004;28;96800;-79
2023/12/17 06:22:02;;;;;;;29.25;10.35;;;;;;;8.32;66.08;101960.19;5015849;27;101093;-78
2023/12/17 06:24:28;;;;;;;19.85;9.20;;;;;;;8.25;66.25;101970.63;5052613;27;97669;-78
2023/12/17 06:26:55;;;;;;;17.15;8.65;;;;;;;8.30;66.17;101961.91;5034837;27;96722;-78
2023/12/17 06:29:20;;;;;;;14.70;5.70;;;;;;;8.25;66.72;101970.63;5034837;27;97271;-78
2023/12/17 06:31:46;;;;;;;11.35;5.97;;;;;;;8.21;66.35;101951.44;5035307;27;97517;-77
2023/12/17 06:34:11;;;;;;;12.40;5.50;;;;;;;8.38;66.54;101980.25;5034941;27;97465;-78
2023/12/17 06:36:37;;;;;;;8.90;5.10;;;;;;;8.12;66.67;101949.69;5017675;27;96772;-77
2023/12/17 06:39:03;;;;;;;12.50;5.60;;;;;;;8.22;66.24;101947.09;5017549;27;97273;-80
2023/12/17 06:41:28;;;;;;;13.40;5.10;;;;;;;8.30;66.28;101979.38;5017043;27;101406;-78
2023/12/17 06:43:54;;;;;;;10.05;5.88;;;;;;;8.43;66.86;101977.66;5034483;27;97441;-78
2023/12/17 06:46:19;;;;;;;10.85;5.30;;;;;;;8.49;65.94;101973.31;5052670;27;96755;-78
2023/12/17 06:48:47;;;;;;;11.25;4.55;;;;;;;8.37;66.27;101983.72;5013801;28;97116;-78
2023/12/17 06:51:12;;;;;;;9.32;3.90;;;;;;;8.37;66.77;101995.06;5030644;28;98121;-78
2023/12/17 06:53:38;;;;;;;6.68;3.63;;;;;;;8.39;66.60;101969.81;5030738;28;97486;-78
2023/12/17 06:56:05;;;;;;;9.88;4.95;;;;;;;8.65;65.92;101987.28;5030850;28;97337;-78
2023/12/17 06:58:31;;;;;;;8.57;3.70;;;;;;;8.51;66.41;101989.03;5030410;27;96839;-78
2023/12/17 07:00:57;;;;;;;11.43;4.43;;;;;;;8.61;66.03;102003.88;5030777;27;96991;-80
2023/12/17 07:03:24;;;;;;;11.65;4.45;;;;;;;8.57;66.10;102002.09;5024116;28;97401;-79
2023/12/17 07:05:50;;;;;;;10.15;4.10;;;;;;;8.43;66.66;101989.00;5013460;28;97257;-78
2023/12/17 07:08:15;;;;;;;11.45;3.92;;;;;;;8.43;66.72;102001.22;5030137;28;98271;-78
2023/12/17 07:10:41;;;;;;;11.57;4.57;;;;;;;8.49;66.39;102009.94;5030518;28;97478;-78
2023/12/17 07:13:06;;;;;;;11.73;4.45;;;;;;;8.63;65.85;102004.72;5032677;28;97406;-77
2023/12/17 07:15:32;;;;;;;8.40;4.20;;;;;;;8.41;66.71;101982.91;5029677;28;98014;-77
2023/12/17 07:17:57;;;;;;;7.05;3.45;;;;;;;8.53;66.29;102014.31;5031307;28;96775;-78
2023/12/17 07:20:23;;;;;;;11.15;4.00;;;;;;;8.56;65.80;102011.72;5012563;28;100004;-78
2023/12/17 07:22:48;;;;;;;8.07;3.97;;;;;;;8.56;65.99;102027.41;5010806;28;101473;-78
2023/12/17 07:25:16;;;;;;;9.85;4.03;;;;;;;8.63;65.99;102025.66;5030635;28;96695;-78
2023/12/17 07:27:42;;;;;;;10.60;4.60;;;;;;;8.66;65.82;102024.81;5007705;28;96804;-78
2023/12/17 07:30:08;;;;;;;8.07;3.80;;;;;;;8.57;65.82;102029.16;5026472;27;98091;-79
2023/12/17 07:32:33;;;;;;;12.63;4.45;;;;;;;8.48;66.21;102021.28;5029540;27;97287;-78
2023/12/17 07:34:59;;;;;;;9.80;4.40;;;;;;;8.29;66.49;102001.16;5010051;28;97259;-78
2023/12/17 07:37:24;;;;;;;10.77;4.47;;;;;;;8.43;66.16;102020.41;5030324;27;96900;-79
2023/12/17 07:39:50;;;;;;;12.63;3.72;;;;;;;8.34;66.26;102008.13;5029217;28;97485;-78
2023/12/17 07:42:15;;;;;;;10.60;4.97;;;;;;;8.52;65.88;102030.00;5012730;27;101081;-78
2023/12/17 07:44:41;;;;;;;9.25;4.47;;;;;;;8.44;66.43;102026.53;5029861;28;97340;-78
2023/12/17 07:47:10;;;;;;;12.40;4.32;;;;;;;8.36;66.36;102031.72;5015464;27;97197;-78
2023/12/17 07:49:37;;;;;;;9.20;4.60;;;;;;;8.44;66.65;102030.03;5032577;27;97503;-81
2023/12/17 07:52:03;;;;;;;10.55;4.57;;;;;;;8.24;66.47;101998.53;5033126;27;98492;-78
2023/12/17 07:54:29;;;;;;;12.80;4.78;;;;;;;8.21;66.50;101976.75;5031971;27;97282;-79
2023/12/17 07:56:55;;;;;;;11.85;4.75;;;;;;;8.48;66.14;102016.06;5014584;27;96953;-79
2023/12/17 07:59:20;;;;;;;7.75;4.55;;;;;;;8.68;66.15;102041.41;5032892;27;98149;-78
2023/12/17 08:01:46;;;;;;;10.90;4.35;;;;;;;8.48;65.68;102012.56;5015560;27;101219;-78
2023/12/17 08:04:13;;;;;;;9.63;4.68;;;;;;;8.55;65.84;102049.25;5033084;27;96697;-78
2023/12/17 08:06:38;;;;;;;9.70;4.45;;;;;;;8.51;66.08;102028.28;5014688;27;98512;-79
2023/12/17 08:09:04;;;;;;;6.47;4.22;;;;;;;8.47;65.92;102029.16;5032900;27;97520;-79
2023/12/17 08:11:29;;;;;;;12.00;3.92;;;;;;;8.67;65.93;102045.75;5033906;27;97921;-78
2023/12/17 08:13:55;;;;;;;10.77;4.72;;;;;;;8.56;65.97;102061.44;5034793;27;96810;-78
2023/12/17 08:16:20;;;;;;;10.15;4.18;;;;;;;8.71;66.07;102057.09;5054404;27;98148;-78
2023/12/17 08:18:46;;;;;;;9.55;4.30;;;;;;;8.68;66.39;102059.72;5033090;27;97616;-78
2023/12/17 08:21:11;;;;;;;7.00;3.95;;;;;;;8.52;66.59;102044.00;5017346;27;97455;-78
2023/12/17 08:23:37;;;;;;;7.65;3.88;;;;;;;8.33;66.87;102021.25;5030318;27;97362;-78
2023/12/17 08:26:02;;;;;;;8.20;3.97;;;;;;;8.41;66.53;102034.34;5031811;27;96879;-78
2023/12/17 08:28:28;;;;;;;10.13;3.92;;;;;;;8.35;67.17;102032.59;5051022;27;97951;-78
2023/12/17 08:30:53;;;;;;;8.82;4.88;;;;;;;8.36;66.71;102032.56;5032316;27;101162;-81
2023/12/17 08:33:19;;;;;;;10.70;4.07;;;;;;;8.33;67.06;102029.09;5034831;27;96769;-78
2023/12/17 08:35:45;;;;;;;9.40;4.07;;;;;;;8.40;67.10;102051.81;5016076;27;97356;-78
2023/12/17 08:38:11;;;;;;;7.65;3.85;;;;;;;8.43;67.09;102054.44;5001192;27;101069;-77
2023/12/17 08:40:38;;;;;;;6.38;3.38;;;;;;;8.38;66.97;102048.28;5045969;27;97400;-78
2023/12/17 08:43:07;;;;;;;6.57;3.25;;;;;;;8.35;67.51;102046.53;5016949;27;97572;-78
2023/12/17 08:45:33;;;;;;;7.25;3.92;;;;;;;8.34;67.53;102052.63;5049880;27;96965;-78
2023/12/17 08:47:59;;;;;;;7.22;3.55;;;;;;;8.37;67.99;102046.53;5013163;27;100902;-78
2023/12/17 08:50:25;;;;;;;6.80;3.70;;;;;;;8.34;67.93;102051.75;5030723;27;98050;-78
2023/12/17 08:52:51;;;;;;;7.05;4.28;;;;;;;8.44;67.66;102045.72;5028732;27;97312;-79
2023/12/17 08:55:17;;;;;;;7.10;3.97;;;;;;;8.35;67.78;102057.00;5017804;27;97336;-78
2023/12/17 08:57:43;;;;;;;9.65;3.95;;;;;;;8.33;67.79;102034.31;5029797;27;97545;-78
2023/12/17 09:00:09;;;;;;;7.20;3.72;;;;;;;8.26;68.16;102043.91;5028993;27;97561;-79
2023/12/17 09:02:35;;;;;;;7.00;3.97;;;;;;;8.44;67.96;102052.72;5031588;27;97170;-78
2023/12/17 09:05:01;;;;;;;6.47;3.53;;;;;;;8.34;67.73;102055.25;5027622;27;97893;-78
2023/12/17 09:07:27;;;;;;;7.03;3.88;;;;;;;8.36;67.68;102042.19;5017766;27;101446;-79
2023/12/17 09:09:52;;;;;;;8.80;4.10;;;;;;;8.47;67.63;102050.09;5019466;27;97408;-77
2023/12/17 09:12:18;;;;;;;6.82;3.78;;;;;;;8.43;67.78;102062.28;5017638;27;96853;-79
2023/12/17 09:14:44;;;;;;;7.72;3.80;;;;;;;8.38;67.78;102045.69;5014162;27;97606;-79
2023/12/17 09:17:09;;;;;;;7.35;3.67;;;;;;;8.46;68.07;102045.72;5014194;27;97482;-74
2023/12/17 09:19:35;;;;;;;8.90;4.38;;;;;;;8.52;67.75;102037.88;5021331;27;100624;-73
2023/12/17 09:22:01;;;;;;;8.70;4.18;;;;;;;8.54;67.78;102050.09;5021640;27;97950;-76
2023/12/17 09:24:27;;;;;;;6.30;3.28;;;;;;;8.52;67.80;102054.47;5025647;27;97863;-75
2023/12/17 09:26:52;;;;;;;8.05;3.67;;;;;;;8.63;67.12;102041.38;5046447;27;97352;-74
2023/12/17 09:29:18;;;;;;;6.50;4.60;;;;;;;8.59;67.44;102039.63;5028741;27;98130;-74
2023/12/17 09:31:43;;;;;;;6.70;4.00;;;;;;;8.68;67.31;102046.63;5032653;27;96766;-74
2023/12/17 09:34:09;;;;;;;10.23;4.30;;;;;;;8.65;67.21;102039.66;5047824;27;97440;-76
2023/12/17 09:36:35;;;;;;;6.80;3.85;;;;;;;8.58;67.93;102045.72;5048940;27;97585;-74
2023/12/17 09:39:00;;;;;;;7.00;3.97;;;;;;;8.66;66.79;102022.19;5047501;27;97911;-73
2023/12/17 09:41:26;;;;;;;6.28;3.90;;;;;;;8.60;67.66;102038.75;5030416;27;97351;-77
2023/12/17 09:43:51;;;;;;;7.88;4.30;;;;;;;8.44;67.90;102032.63;5043389;27;96838;-72
2023/12/17 09:46:18;;;;;;;5.78;3.80;;;;;;;8.28;68.04;102017.72;5030365;27;99056;-74
2023/12/17 09:48:44;;;;;;;11.15;4.90;;;;;;;8.29;67.78;102016.84;5027518;27;97384;-76
2023/12/17 09:51:10;;;;;;;8.50;3.63;;;;;;;8.59;67.59;102039.63;5023890;28;96821;-75
2023/12/17 09:53:35;;;;;;;10.57;4.00;;;;;;;8.64;67.55;102037.91;5033895;27;97196;-74
2023/12/17 09:56:01;;;;;;;7.22;4.18;;;;;;;8.60;67.29;102036.13;4994014;27;101013;-75
2023/12/17 09:58:27;;;;;;;7.35;4.53;;;;;;;8.64;67.25;102039.63;5009133;27;101447;-74
2023/12/17 10:00:53;;;;;;;7.80;4.70;;;;;;;8.56;67.69;102035.28;5019422;27;97066;-75
2023/12/17 10:03:19;;;;;;;8.60;4.20;;;;;;;8.48;68.07;102015.19;5013415;27;97478;-74
2023/12/17 10:05:52;;;;;;;9.68;4.60;;;;;;;8.57;67.86;102033.53;5024375;27;98337;-74
2023/12/17 10:08:18;;;;;;;7.45;4.38;;;;;;;8.65;67.68;102034.41;5045445;27;97406;-75
2023/12/17 10:10:44;;;;;;;10.65;4.97;;;;;;;8.83;67.25;102037.03;5012660;28;97267;-75
2023/12/17 10:13:10;;;;;;;8.43;4.60;;;;;;;8.99;66.99;102005.63;5026917;27;97345;-77
2023/12/17 10:15:37;;;;;;;11.45;5.28;;;;;;;9.24;66.37;102020.41;5015800;27;97921;-76
2023/12/17 10:18:03;;;;;;;11.38;4.50;;;;;;;9.28;66.28;102001.22;5032177;27;97408;-78
2023/12/17 10:20:30;;;;;;;5.57;4.82;;;;;;;9.46;65.72;102010.78;5048436;27;97620;-75
2023/12/17 10:22:58;;;;;;;10.13;3.78;;;;;;;9.68;65.29;102014.19;5023374;27;97390;-80
2023/12/17 10:25:24;;;;;;;9.95;5.13;;;;;;;9.67;64.39;101988.00;5018257;27;98762;-76
2023/12/17 10:27:55;;;;;;;6.20;3.70;;;;;;;9.94;64.28;102002.72;4995539;27;100233;-83
2023/12/17 10:30:21;;;;;;;4.80;3.55;;;;;;;10.03;64.07;101973.81;5027583;27;97323;-76
2023/12/17 10:32:47;;;;;;;5.40;3.80;;;;;;;10.30;63.27;101990.34;5025339;27;97972;-76
2023/12/17 10:35:13;;;;;;;6.32;3.50;;;;;;;10.34;62.71;101981.53;5029825;27;97414;-76
2023/12/17 10:37:39;;;;;;;6.93;3.38;;;;;;;10.31;63.03;101977.19;5029625;27;97971;-76
2023/12/17 10:40:06;;;;;;;11.68;3.67;;;;;;;10.21;62.79;101975.47;5047887;27;98039;-78
2023/12/17 10:42:32;;;;;;;9.13;3.45;;;;;;;10.25;62.58;101989.44;5032160;27;97221;-75
2023/12/17 10:44:58;;;;;;;7.05;3.17;;;;;;;10.32;62.54;101983.31;5007626;27;101296;-76
2023/12/17 10:47:27;;;;;;;8.18;3.80;;;;;;;10.26;62.40;101964.94;5029018;27;97493;-74
2023/12/17 10:49:53;;;;;;;5.95;3.13;;;;;;;10.34;62.26;101971.03;5024493;27;96856;-75
2023/12/17 10:52:20;;;;;;;8.60;3.83;;;;;;;10.40;61.54;101965.75;5028905;27;97573;-73
2023/12/17 10:54:46;;;;;;;5.65;3.40;;;;;;;10.39;61.36;101941.25;5026136;27;97647;-74
2023/12/17 10:57:15;;;;;;;8.82;3.53;;;;;;;10.55;61.46;101959.50;5047844;27;97157;-78
2023/12/17 10:59:41;;;;;;;6.57;2.90;;;;;;;10.57;61.25;101957.75;5028235;27;98676;-74
2023/12/17 11:02:08;;;;;;;6.90;2.95;;;;;;;10.54;61.33;101934.16;5023815;27;98066;-80
2023/12/17 11:04:33;;;;;;;6.05;3.30;;;;;;;10.60;61.23;101958.59;5010181;27;101861;-76
2023/12/17 11:06:59;;;;;;;3.88;2.55;;;;;;;10.68;61.05;101961.16;5024894;27;99982;-84
2023/12/17 11:09:24;;;;;;;6.53;3.20;;;;;;;10.61;60.83;101967.34;5029697;27;97558;-78
2023/12/17 11:11:53;;;;;;;6.20;3.17;;;;;;;10.35;61.79;101952.66;5026998;27;97472;-76
2023/12/17 11:14:19;;;;;;;4.60;2.83;;;;;;;10.40;61.28;101969.25;5011418;27;101882;-75
2023/12/17 11:16:45;;;;;;;7.45;3.28;;;;;;;10.51;61.58;101968.31;5025398;27;98070;-80
2023/12/17 11:19:13;;;;;;;6.57;3.17;;;;;;;10.58;61.47;101962.97;5046639;27;97206;-76
2023/12/17 11:21:41;;;;;;;4.78;3.45;;;;;;;10.50;61.57;101966.53;5030158;27;97490;-76